Flight Track Log - Related Links

Times and Time Zones

All times are in EDT time to prevent confusion due to time zone crossing. See the SWA1182 flight status page for this flight to view local times or setup timezone preferences in your user account.

Time Position Orientation Groundspeed Altitude Reporting Facility
EDT Latitude Longitude Course Direction KTS MPH feet Rate Location/Type
Sat 07:24:47 PM 34.0022 -117.5997 164° South 232 267 4,400  Level Los Angeles Center
Sat 07:25:49 PM 33.9481 -117.5531 144° Southeast 237 273 7,000 2,049 Climbing Los Angeles Center
Sat 07:26:50 PM 33.8833 -117.4986 145° Southeast 271 312 8,600 2,341 Climbing Los Angeles Center
Sat 07:27:52 PM 33.8025 -117.4300 145° Southeast 291 335 11,800 3,242 Climbing Los Angeles Center
Sat 07:28:00 PM 33.8014 -117.4372 145° Southeast  Level FlightAware Approximate
Sat 07:28:54 PM 33.7314 -117.3536 138° Southeast 336 387 15,300  Level Los Angeles Center
Sat 07:29:00 PM 33.7203 -117.3697 145° Southeast  Level FlightAware Approximate
Sat 07:29:55 PM 33.7225 -117.2403 95° East 341 392 18,900  Level Los Angeles Center
Sat 07:30:57 PM 33.7106 -117.1214 97° East 354 407 22,100 3,097 Climbing Los Angeles Center
Sat 07:31:59 PM 33.7006 -116.9917 95° East 382 440 25,300 3,122 Climbing Los Angeles Center
Sat 07:33:00 PM 33.6889 -116.8467 95° East 392 451 28,500 3,024 Climbing Los Angeles Center
Sat 07:34:02 PM 33.6764 -116.7142 96° East 397 457 31,500 2,177 Climbing Los Angeles Center
Sat 07:35:04 PM 33.6653 -116.5842 96° East 394 453 33,000 732 Climbing Los Angeles Center
Sat 07:36:05 PM 33.6533 -116.4503 96° East 402 463 33,000  Level Los Angeles Center
Sat 07:37:07 PM 33.6408 -116.3172 96° East 402 463 33,000  Level Los Angeles Center
Sat 07:38:08 PM 33.6294 -116.1831 96° East 404 465 33,000  Level Los Angeles Center
Sat 07:39:10 PM 33.6250 -116.0483 92° East 403 464 33,000  Level Los Angeles Center
Sat 07:40:12 PM 33.6222 -115.8858 91° East 405 466 33,000  Level Los Angeles Center
Sat 07:41:13 PM 33.6192 -115.7553 92° East 397 457 33,000  Level Los Angeles Center
Sat 07:42:15 PM 33.6167 -115.6225 91° East 397 457 33,000  Level Los Angeles Center
Sat 07:43:16 PM 33.6133 -115.4906 92° East 396 456 33,000  Level Los Angeles Center
Sat 07:44:18 PM 33.6103 -115.3572 92° East 399 459 33,000  Level Los Angeles Center
Sat 07:45:20 PM 33.6072 -115.2244 92° East 400 460 33,000  Level Los Angeles Center
Sat 07:46:21 PM 33.6033 -115.0908 92° East 403 464 33,000  Level Los Angeles Center
Sat 07:47:23 PM 33.6000 -114.9572 92° East 402 463 33,000  Level Los Angeles Center
Sat 07:48:24 PM 33.5961 -114.8236 92° East 403 464 33,000  Level Los Angeles Center
Sat 07:49:26 PM 33.5750 -114.6608 99° East 418 481 33,000  Level Los Angeles Center
Sat 07:49:47 PM 33.5686 -114.6161 100° East 419 482 33,000 -73 Level Albuquerque Center
Sat 07:50:48 PM 33.5422 -114.4814 103° East 418 481 32,900 -1,377 Descending Albuquerque Center
Sat 07:51:49 PM 33.5175 -114.3453 102° East 418 481 30,200 -2,705 Descending Albuquerque Center
Sat 07:52:50 PM 33.4906 -114.2125 104° East 413 475 27,400 -2,557 Descending Albuquerque Center
Sat 07:53:51 PM 33.4639 -114.0844 104° East 402 463 25,000 -1,171 Descending Albuquerque Center
Sat 07:54:53 PM 33.4394 -113.9614 103° East 386 444 25,000  Level Albuquerque Center
Sat 07:55:54 PM 33.4153 -113.8383 103° East 381 438 25,000  Level Albuquerque Center
Sat 07:56:55 PM 33.3900 -113.7158 104° East 380 437 25,000 -148 Level Albuquerque Center
Sat 07:57:56 PM 33.3653 -113.5936 104° East 380 437 24,700 -1,426 Descending Albuquerque Center
Sat 07:58:57 PM 33.3411 -113.4739 104° East 374 430 22,100 -1,854 Descending Albuquerque Center
Sat 07:59:59 PM 33.3125 -113.3356 104° East 360 414 20,900 -1,707 Descending Albuquerque Center
Sat 08:01:00 PM 33.2886 -113.2222 104° East 354 407 18,600 -2,213 Descending Albuquerque Center
Sat 08:02:01 PM 33.2733 -113.1122 99° East 341 392 16,400 -1,918 Descending Albuquerque Center
Sat 08:03:02 PM 33.2761 -112.9992 88° East 339 390 14,700 -1,805 Descending Albuquerque Center
Sat 08:04:04 PM 33.2783 -112.8903 89° East 332 382 12,700 -1,610 Descending Albuquerque Center
Sat 08:05:05 PM 33.2886 -112.7917 83° East 309 356 11,400 -1,377 Descending Albuquerque Center
Sat 08:06:06 PM 33.3217 -112.7108 64° Northeast 276 318 9,900 -1,220 Descending Albuquerque Center
Sat 08:07:08 PM 33.3514 -112.6269 67° East 273 314 8,900 -927 Descending Albuquerque Center
Sat 08:08:09 PM 33.3875 -112.5372 64° Northeast 270 311 8,000 -878 Descending Albuquerque Center
Sat 08:09:11 PM 33.4169 -112.4572 66° East 265 305 7,100 -878 Descending Albuquerque Center
Sat 08:10:12 PM 33.4272 -112.3756 81° East 253 291 6,200 -984 Descending Albuquerque Center
Sat 08:11:13 PM 33.4278 -112.2939 90° East 249 287 5,100 -878 Descending Albuquerque Center
Sat 08:12:15 PM 33.4292 -112.2192 89° East 235 270 4,400 -976 Descending Albuquerque Center
Sat 08:13:16 PM 33.4283 -112.1589 91° East 202 232 3,100 -1,073 Descending Albuquerque Center
Sat 08:14:18 PM 33.4314 -112.0964 87° East 178 205 2,200 -780 Descending Albuquerque Center
Sat 08:15:19 PM 33.4314 -112.0528 90° East 155 178 1,500 -541 Descending Albuquerque Center
Sat 08:16:20 PM 33.4317 -112.0131 90° East 146 168 1,100 -393 Descending Albuquerque Center
Sat 08:18:00 PM 33.4343 -112.0116 68° East  Level Estimated

Login

Don't have an account? Register now (free) for customized features, flight alerts, and more!